malecelebnews.com alexa rank chart, malecelebnews.com alexa rank daily changes

malecelebnews.com alexa rank chart, malecelebnews.com alexa rank daily changes

malecelebnews.com
Actual rank:
146 606

RANK HISTORY

Date Rank Diff
2017/01/21 146 606 -7 251
2017/01/20 153 857 +5 245
2017/01/19 148 612 +5 635
2017/01/18 142 977 -1 932
2017/01/17 144 909 -3 641
2017/01/16 148 550 +8 133
2017/01/15 140 417 -4 854
2017/01/14 145 271 -2 448
2017/01/13 147 719 +2 617
2017/01/12 145 102 -796
2017/01/11 145 898 +177
2017/01/10 145 721 -1 148
2017/01/09 146 869 +3 727
2017/01/08 143 142 -3 038
2017/01/07 146 180 -2 464
2017/01/06 148 644 +7 165
2017/01/05 141 479 -5 478
2017/01/04 146 957 -697
2017/01/03 147 654 -4 229
2017/01/02 151 883 -2 112
2017/01/01 153 995 +1 444
2016/12/31 152 551 -885
2016/12/30 153 436 +5 416
2016/12/29 148 020 +2 320
2016/12/28 145 700 -1 053
2016/12/27 146 753 -6 646
2016/12/26 153 399 -6 996
2016/12/25 160 395 -760
2016/12/24 161 155 +2 424
2016/12/23 158 731 +3 000
2016/12/22 155 731 +4 291
2016/12/21 151 440 -1 233
2016/12/20 152 673 -5 492
2016/12/19 158 165 -7 749
2016/12/18 165 914 -924
2016/12/17 166 838 +341
2016/12/16 166 497 -8 491
2016/12/15 174 988 +3 726
2016/12/14 171 262 -384
2016/12/13 171 646 -7 363
2016/12/12 179 009 -2 910
2016/12/11 181 919 -3 406
2016/12/10 185 325 -1 046
2016/12/09 186 371 -3 909
2016/12/08 190 280 -3 677
2016/12/07 193 957 +16 011
2016/12/06 177 946 -3 838
2016/12/05 181 784 +4 965
2016/12/04 176 819 -128
2016/12/02 176 947 +9 840
2016/12/01 167 107 +8 584
2016/11/30 158 523 -7 034
2016/11/29 165 557 -3 454
2016/11/28 169 011 -968
2016/11/27 169 979 +20 288
2016/11/26 149 691 +11 732
2016/11/25 137 959 +6 221
2016/11/24 131 738 -546
2016/11/23 132 284

WIDGET FOR YOUR SITE

DOMAINS WITH THE NEAREST RANK

Domain Rank
contemporaryartdaily.com 146 601
glamour.pl 146 602
zhluda.cn 146 603
pro-ichi.com 146 604
insureon.com 146 605
malecelebnews.com 146 606
yottaa.com 146 607
madewithcode.com 146 608
do-re.com.tr 146 609
mailstore.com 146 610
tutengdai.com 146 611

DOMAINS WITH THE NEAREST RANK BY TLD .com

Domain Rank
rashf.com 146 598
sonicacademy.com 146 599
contemporaryartdaily.com 146 601
pro-ichi.com 146 604
insureon.com 146 605
malecelebnews.com 146 606
yottaa.com 146 607
madewithcode.com 146 608
mailstore.com 146 610
tutengdai.com 146 611
junzitang.com 146 612